createdAt,value
2022-09-24T00:00:34.049Z,20.53
2022-09-24T00:03:03.546Z,21.07
2022-09-24T00:05:31.659Z,20.10
2022-09-24T00:07:59.793Z,20.10
2022-09-24T00:10:27.980Z,20.53
2022-09-24T00:12:56.198Z,21.00
2022-09-24T00:15:24.349Z,20.00
2022-09-24T00:17:52.536Z,19.80
2022-09-24T00:20:22.768Z,19.93
2022-09-24T00:22:50.821Z,21.03
2022-09-24T00:25:36.206Z,20.73
2022-09-24T00:28:04.558Z,20.50
2022-09-24T00:30:32.782Z,19.97
2022-09-24T00:33:00.950Z,20.20
2022-09-24T00:35:32.889Z,20.17
2022-09-24T00:38:03.648Z,20.10
2022-09-24T00:40:33.561Z,20.67
2022-09-24T00:43:01.879Z,20.13
2022-09-24T00:45:31.916Z,19.50
2022-09-24T00:48:00.257Z,20.47
2022-09-24T00:50:33.309Z,20.03
2022-09-24T00:53:06.930Z,20.00
2022-09-24T00:55:36.698Z,19.00
2022-09-24T00:58:08.194Z,19.90
2022-09-24T01:00:40.247Z,20.87
2022-09-24T01:03:13.683Z,21.10
2022-09-24T01:05:43.137Z,21.10
2022-09-24T01:08:18.382Z,21.10
2022-09-24T01:11:05.824Z,20.97
2022-09-24T01:13:45.133Z,21.27
2022-09-24T01:16:18.516Z,20.53
2022-09-24T01:18:52.821Z,21.70
2022-09-24T01:21:33.385Z,20.53
2022-09-24T01:24:12.506Z,21.07
2022-09-24T01:26:58.549Z,21.07
2022-09-24T01:29:34.557Z,21.43
2022-09-24T01:32:07.966Z,20.60
2022-09-24T01:34:43.113Z,21.60
2022-09-24T01:37:14.133Z,21.40
2022-09-24T01:39:45.372Z,19.63
2022-09-24T01:42:14.851Z,19.93
2022-09-24T01:44:45.522Z,20.53
2022-09-24T01:47:21.332Z,21.10
2022-09-24T01:49:51.498Z,20.63
2022-09-24T01:52:25.164Z,20.03
2022-09-24T01:54:55.789Z,20.90
2022-09-24T01:57:31.135Z,21.70
2022-09-24T02:00:06.431Z,21.87
2022-09-24T02:02:45.412Z,21.43
2022-09-24T02:05:19.591Z,20.90
2022-09-24T02:07:54.064Z,20.67
2022-09-24T02:10:22.408Z,20.27
2022-09-24T02:12:57.933Z,20.80
2022-09-24T02:15:32.758Z,21.47
2022-09-24T02:18:09.660Z,19.97
2022-09-24T02:20:41.079Z,22.20
2022-09-24T02:23:12.010Z,21.47
2022-09-24T02:25:44.003Z,20.90
2022-09-24T02:28:12.235Z,20.00
2022-09-24T02:30:47.644Z,21.67
2022-09-24T02:33:34.613Z,21.27
2022-09-24T02:36:03.521Z,20.57
2022-09-24T02:38:31.616Z,22.07
2022-09-24T02:41:00.094Z,21.13
2022-09-24T02:43:28.246Z,20.93
2022-09-24T02:45:57.719Z,21.13
2022-09-24T02:48:25.932Z,22.07
2022-09-24T02:50:54.051Z,21.53
2022-09-24T02:53:22.191Z,21.13
2022-09-24T02:55:50.409Z,21.73
2022-09-24T02:58:18.531Z,21.63
2022-09-24T03:00:46.696Z,21.23
2022-09-24T03:03:16.352Z,21.23
2022-09-24T03:05:44.565Z,20.10
2022-09-24T03:08:12.761Z,21.20
2022-09-24T03:10:40.881Z,21.20
2022-09-24T03:13:12.165Z,21.23
2022-09-24T03:15:42.485Z,20.83
2022-09-24T03:18:13.151Z,21.77
2022-09-24T03:20:43.004Z,21.27
2022-09-24T03:23:11.194Z,21.10
2022-09-24T03:25:39.331Z,20.27
2022-09-24T03:28:07.927Z,21.53
2022-09-24T03:30:53.340Z,21.17
2022-09-24T03:33:21.916Z,21.60
2022-09-24T03:35:55.910Z,21.47
2022-09-24T03:38:24.392Z,20.50
2022-09-24T03:40:52.679Z,21.80
2022-09-24T03:43:21.022Z,22.00
2022-09-24T03:45:49.797Z,20.60
2022-09-24T03:48:20.636Z,21.30
2022-09-24T03:50:49.274Z,20.90
2022-09-24T03:53:19.571Z,20.30
2022-09-24T03:55:49.120Z,20.40
2022-09-24T03:58:17.454Z,20.43
2022-09-24T04:00:45.886Z,21.33
2022-09-24T04:03:14.196Z,21.00
2022-09-24T04:05:43.583Z,20.57
2022-09-24T04:08:15.731Z,20.40
2022-09-24T04:10:46.666Z,21.30
2022-09-24T04:13:16.121Z,21.37
2022-09-24T04:15:44.807Z,20.93
2022-09-24T04:18:13.242Z,21.10
2022-09-24T04:20:41.630Z,20.37
2022-09-24T04:23:10.753Z,19.80
2022-09-24T04:25:40.452Z,21.10
2022-09-24T04:28:12.138Z,21.17
2022-09-24T04:30:40.962Z,19.57
2022-09-24T04:33:10.159Z,20.13
2022-09-24T04:35:38.540Z,21.93
2022-09-24T04:38:06.831Z,20.43
2022-09-24T04:40:35.425Z,21.93
2022-09-24T04:43:06.107Z,20.03
2022-09-24T04:45:35.949Z,20.60
2022-09-24T04:48:04.467Z,21.13
2022-09-24T04:50:33.767Z,20.50
2022-09-24T04:53:03.212Z,20.37
2022-09-24T04:55:32.300Z,20.97
2022-09-24T04:58:00.666Z,20.87
2022-09-24T05:00:31.623Z,20.70
2022-09-24T05:03:04.378Z,19.93
2022-09-24T05:05:33.375Z,20.93
2022-09-24T05:08:02.175Z,20.47
2022-09-24T05:10:31.534Z,20.67
2022-09-24T05:12:59.753Z,20.60
2022-09-24T05:15:27.944Z,20.63
2022-09-24T05:17:56.146Z,21.53
2022-09-24T05:20:26.066Z,21.13
2022-09-24T05:22:54.250Z,20.40
2022-09-24T05:25:23.399Z,20.20
2022-09-24T05:27:52.068Z,19.60
2022-09-24T05:30:21.765Z,18.80
2022-09-24T05:32:52.297Z,19.50
2022-09-24T05:35:20.806Z,19.67
2022-09-24T05:37:53.336Z,19.97
2022-09-24T05:40:40.188Z,20.43
2022-09-24T05:43:08.406Z,19.57
2022-09-24T05:45:36.542Z,19.93
2022-09-24T05:48:05.463Z,19.67
2022-09-24T05:50:35.154Z,19.63
2022-09-24T05:53:06.683Z,20.03
2022-09-24T05:55:35.327Z,19.47
2022-09-24T05:58:05.286Z,20.30
2022-09-24T06:00:33.770Z,21.00
2022-09-24T06:03:07.953Z,19.70
2022-09-24T06:05:36.357Z,19.63
2022-09-24T06:08:08.803Z,19.60
2022-09-24T06:10:37.876Z,19.53
2022-09-24T06:13:08.097Z,19.47
2022-09-24T06:15:36.272Z,19.30
2022-09-24T06:18:04.341Z,19.40
2022-09-24T06:20:32.921Z,19.70
2022-09-24T06:23:02.355Z,19.07
2022-09-24T06:25:32.466Z,20.80
2022-09-24T06:28:02.133Z,19.80
2022-09-24T06:30:32.011Z,19.10
2022-09-24T06:33:05.345Z,19.50
2022-09-24T06:35:35.336Z,19.60
2022-09-24T06:38:03.703Z,19.50
2022-09-24T06:40:37.414Z,20.17
2022-09-24T06:43:06.819Z,20.60
2022-09-24T06:45:38.595Z,21.03
2022-09-24T06:48:07.906Z,21.23
2022-09-24T06:50:42.093Z,21.23
2022-09-24T06:53:11.953Z,20.87
2022-09-24T06:55:42.288Z,21.93
2022-09-24T06:58:12.361Z,21.03
2022-09-24T07:00:41.189Z,26.10
2022-09-24T07:03:14.111Z,21.20
2022-09-24T07:05:43.794Z,22.00
2022-09-24T07:08:12.507Z,21.67
2022-09-24T07:10:44.943Z,21.33
2022-09-24T07:13:14.219Z,21.20
2022-09-24T07:15:42.626Z,21.20
2022-09-24T07:18:11.129Z,20.40
2022-09-24T07:20:42.203Z,19.97
2022-09-24T07:23:12.035Z,20.60
2022-09-24T07:25:44.895Z,20.03
2022-09-24T07:28:15.693Z,20.70
2022-09-24T07:30:46.375Z,19.47
2022-09-24T07:33:16.724Z,20.60
2022-09-24T07:35:44.893Z,21.67
2022-09-24T07:38:13.640Z,19.70
2022-09-24T07:40:42.508Z,19.10
2022-09-24T07:43:14.625Z,19.00
2022-09-24T07:45:45.249Z,18.40
2022-09-24T07:48:15.727Z,18.77
2022-09-24T07:50:43.916Z,18.97
2022-09-24T07:53:15.219Z,18.77
2022-09-24T07:55:43.517Z,20.63
2022-09-24T07:58:15.071Z,19.43
2022-09-24T08:00:43.705Z,18.83
2022-09-24T08:03:12.108Z,19.33
2022-09-24T08:05:45.434Z,20.00
2022-09-24T08:08:14.335Z,18.67
2022-09-24T08:10:43.115Z,19.80
2022-09-24T08:13:11.372Z,19.90
2022-09-24T08:15:41.462Z,19.60
2022-09-24T08:18:09.925Z,19.03
2022-09-24T08:20:39.350Z,19.73
2022-09-24T08:23:10.580Z,20.00
2022-09-24T08:25:38.993Z,19.00
2022-09-24T08:28:12.129Z,18.93
2022-09-24T08:30:42.042Z,18.17
2022-09-24T08:33:10.488Z,18.00
2022-09-24T08:35:40.273Z,18.40
2022-09-24T08:38:09.676Z,19.17
2022-09-24T08:40:40.960Z,19.00
2022-09-24T08:43:22.207Z,18.00
2022-09-24T08:46:14.084Z,18.23
2022-09-24T08:48:46.576Z,18.97
2022-09-24T08:51:18.408Z,19.67
2022-09-24T08:53:53.384Z,19.27
2022-09-24T08:56:26.360Z,19.30
2022-09-24T08:58:59.508Z,18.90
2022-09-24T09:01:39.765Z,18.30
2022-09-24T09:04:24.851Z,19.63
2022-09-24T09:07:02.820Z,19.50
2022-09-24T09:09:42.599Z,20.90
2022-09-24T09:12:16.549Z,18.30
2022-09-24T09:14:49.342Z,19.50
2022-09-24T09:17:28.623Z,18.40
2022-09-24T09:19:58.352Z,18.50
2022-09-24T09:22:30.411Z,18.93
2022-09-24T09:25:04.558Z,18.87
2022-09-24T09:27:32.892Z,19.23
2022-09-24T09:30:09.142Z,18.10
2022-09-24T09:32:54.845Z,19.43
2022-09-24T09:35:34.269Z,19.30
2022-09-24T09:38:08.464Z,18.83
2022-09-24T09:40:44.634Z,18.80
2022-09-24T09:43:15.434Z,16.90
2022-09-24T09:45:52.071Z,19.20
2022-09-24T09:48:26.168Z,17.27
2022-09-24T09:51:00.366Z,16.80
2022-09-24T09:53:31.456Z,17.57
2022-09-24T09:56:04.284Z,17.70
2022-09-24T09:58:33.742Z,18.00
2022-09-24T10:01:07.485Z,17.30
2022-09-24T10:03:49.623Z,19.70
2022-09-24T10:06:25.903Z,18.97
2022-09-24T10:08:54.629Z,18.77
2022-09-24T10:11:24.040Z,18.63
2022-09-24T10:14:03.459Z,17.33
2022-09-24T10:16:31.707Z,18.27
2022-09-24T10:19:03.845Z,17.60
2022-09-24T10:21:35.319Z,18.20
2022-09-24T10:24:06.004Z,17.90
2022-09-24T10:26:44.004Z,19.63
2022-09-24T10:29:33.286Z,18.87
2022-09-24T10:32:01.805Z,17.70
2022-09-24T10:34:31.449Z,17.90
2022-09-24T10:37:08.647Z,18.03
2022-09-24T10:39:38.903Z,18.67
2022-09-24T10:42:07.908Z,18.00
2022-09-24T10:44:38.474Z,18.00
2022-09-24T10:47:27.817Z,18.67
2022-09-24T10:50:25.433Z,18.60
2022-09-24T10:52:57.997Z,21.60
2022-09-24T10:55:42.906Z,21.50
2022-09-24T10:58:26.191Z,18.20
2022-09-24T11:01:05.285Z,20.13
2022-09-24T11:04:19.189Z,17.07
2022-09-24T11:07:01.323Z,17.20
2022-09-24T11:09:35.262Z,17.67
2022-09-24T11:12:15.630Z,17.00
2022-09-24T11:14:59.857Z,16.10
2022-09-24T11:17:34.279Z,16.50
2022-09-24T11:20:21.548Z,17.23
2022-09-24T11:23:16.129Z,17.60
2022-09-24T11:25:51.689Z,18.00
2022-09-24T11:28:38.920Z,17.73
2022-09-24T11:31:18.724Z,16.60
2022-09-24T11:34:14.239Z,17.00
2022-09-24T11:37:15.612Z,18.40
2022-09-24T11:40:04.115Z,16.70
2022-09-24T11:42:44.359Z,17.50
2022-09-24T11:45:30.653Z,17.07
2022-09-24T11:48:16.816Z,17.83
2022-09-24T11:50:56.990Z,17.40
2022-09-24T11:53:33.785Z,17.37
2022-09-24T11:56:13.388Z,18.57
2022-09-24T11:58:49.403Z,17.30
2022-09-24T12:01:22.384Z,17.40
2022-09-24T12:04:00.084Z,18.30
2022-09-24T12:06:34.617Z,17.90
2022-09-24T12:09:19.118Z,18.40
2022-09-24T12:11:52.819Z,17.07
2022-09-24T12:14:25.755Z,17.30
2022-09-24T12:17:02.385Z,16.50
2022-09-24T12:19:35.598Z,17.40
2022-09-24T12:22:23.860Z,16.90
2022-09-24T12:25:08.706Z,16.67
2022-09-24T12:27:48.158Z,16.97
2022-09-24T12:31:11.381Z,16.00
2022-09-24T12:34:09.972Z,15.83
2022-09-24T12:37:06.559Z,15.50
2022-09-24T12:39:47.680Z,16.30
2022-09-24T12:42:39.711Z,16.00
2022-09-24T12:45:29.913Z,16.33
2022-09-24T12:48:16.193Z,16.87
2022-09-24T12:51:22.796Z,16.20
2022-09-24T12:54:21.799Z,16.40
2022-09-24T12:56:55.985Z,15.40
2022-09-24T12:59:40.887Z,15.60
2022-09-24T13:02:39.491Z,15.70
2022-09-24T13:05:27.355Z,15.53
2022-09-24T13:08:04.093Z,15.33
2022-09-24T13:10:37.675Z,15.20
2022-09-24T13:13:53.096Z,15.50
2022-09-24T13:16:43.970Z,15.63
2022-09-24T13:20:00.547Z,16.87
2022-09-24T13:22:43.939Z,15.73
2022-09-24T13:28:49.944Z,16.40
2022-09-24T13:31:45.240Z,16.73
2022-09-24T13:34:55.992Z,15.77
2022-09-24T14:35:36.175Z,16.40
2022-09-24T14:38:53.559Z,16.00
2022-09-24T14:41:58.490Z,15.97
2022-09-24T14:44:49.160Z,16.37
2022-09-24T14:47:53.453Z,16.80
2022-09-24T14:51:20.397Z,15.63
2022-09-24T14:54:34.157Z,16.37
2022-09-24T14:57:16.475Z,15.77
2022-09-24T14:59:49.920Z,16.00
2022-09-24T15:02:25.770Z,15.67
2022-09-24T15:05:02.000Z,16.37
2022-09-24T15:07:43.821Z,15.50
2022-09-24T15:10:26.486Z,15.93
2022-09-24T15:12:57.594Z,18.80
2022-09-24T15:15:32.854Z,16.20
2022-09-24T15:18:04.247Z,16.20
2022-09-24T15:20:34.887Z,15.17
2022-09-24T15:23:04.993Z,15.90
2022-09-24T15:25:33.688Z,16.20
2022-09-24T15:28:02.384Z,16.70
2022-09-24T15:30:31.036Z,16.63
2022-09-24T15:33:04.897Z,16.80
2022-09-24T15:35:49.373Z,17.67
2022-09-24T15:38:22.713Z,17.57
2022-09-24T15:40:56.129Z,17.93
2022-09-24T15:43:31.080Z,18.13
2022-09-24T15:46:02.679Z,18.03
2022-09-24T15:48:33.693Z,17.63
2022-09-24T15:51:15.050Z,18.30
2022-09-24T15:53:51.261Z,18.37
2022-09-24T15:56:35.932Z,18.07
2022-09-24T15:59:12.879Z,18.67
2022-09-24T16:01:43.999Z,19.10
2022-09-24T16:04:15.566Z,18.87
2022-09-24T16:06:53.123Z,18.90
2022-09-24T16:09:25.148Z,19.27
2022-09-24T16:11:57.729Z,18.90
2022-09-24T16:14:29.089Z,18.60
2022-09-24T16:16:57.746Z,18.60
2022-09-24T16:19:26.368Z,19.40
2022-09-24T16:21:54.714Z,19.30
2022-09-24T16:24:24.965Z,20.30
2022-09-24T16:26:57.467Z,19.60
2022-09-24T16:29:25.873Z,20.90
2022-09-24T16:31:56.992Z,19.90
2022-09-24T16:34:25.624Z,19.67
2022-09-24T16:37:00.706Z,19.47
2022-09-24T16:39:30.653Z,21.33
2022-09-24T16:41:59.184Z,19.93
2022-09-24T16:44:27.494Z,21.73
2022-09-24T16:46:57.570Z,22.63
2022-09-24T16:49:28.660Z,23.30
2022-09-24T16:52:03.630Z,23.83
2022-09-24T16:54:37.042Z,23.77
2022-09-24T16:57:06.324Z,23.43
2022-09-24T16:59:39.631Z,23.37
2022-09-24T17:02:08.595Z,22.10
2022-09-24T17:04:37.489Z,23.70
2022-09-24T17:07:05.840Z,20.50
2022-09-24T17:09:52.977Z,22.37
2022-09-24T17:12:21.269Z,21.40
2022-09-24T17:14:49.465Z,32.00
2022-09-24T17:17:17.678Z,29.27
2022-09-24T17:19:45.925Z,24.93
2022-09-24T17:22:14.362Z,23.50
2022-09-24T17:24:43.883Z,25.30
2022-09-24T17:27:12.337Z,25.80
2022-09-24T17:29:40.611Z,26.17
2022-09-24T17:32:08.829Z,28.47
2022-09-24T17:34:38.698Z,25.90
2022-09-24T17:37:09.332Z,26.77
2022-09-24T17:39:37.484Z,30.97
2022-09-24T17:42:07.956Z,34.63
2022-09-24T17:44:36.275Z,29.70
2022-09-24T17:47:04.866Z,27.30
2022-09-24T17:49:33.212Z,27.67
2022-09-24T17:52:02.259Z,29.43
2022-09-24T17:54:30.564Z,27.67
2022-09-24T17:56:58.889Z,28.90
2022-09-24T17:59:28.866Z,28.53
2022-09-24T18:01:58.474Z,28.70
2022-09-24T18:04:28.388Z,27.90
2022-09-24T18:06:56.732Z,27.50
2022-09-24T18:09:24.811Z,27.37
2022-09-24T18:11:53.731Z,28.97
2022-09-24T18:14:23.549Z,27.63
2022-09-24T18:16:53.504Z,28.00
2022-09-24T18:19:23.158Z,28.03
2022-09-24T18:21:51.178Z,29.33
2022-09-24T18:24:19.325Z,28.77
2022-09-24T18:26:51.249Z,28.90
2022-09-24T18:29:22.558Z,30.03
2022-09-24T18:31:52.574Z,31.07
2022-09-24T18:34:20.837Z,30.90
2022-09-24T18:36:49.147Z,32.70
2022-09-24T18:39:25.010Z,29.70
2022-09-24T18:41:54.140Z,29.70
2022-09-24T18:44:22.698Z,29.83
2022-09-24T18:46:52.331Z,31.20
2022-09-24T18:49:23.247Z,31.53
2022-09-24T18:51:52.283Z,33.97
2022-09-24T18:54:20.840Z,40.40
2022-09-24T18:56:49.211Z,39.50
2022-09-24T18:59:19.335Z,42.20
2022-09-24T19:01:49.385Z,45.60
2022-09-24T19:04:19.867Z,44.73
2022-09-24T19:06:49.936Z,48.53
2022-09-24T19:09:20.207Z,48.80
2022-09-24T19:11:49.156Z,43.93
2022-09-24T19:14:20.420Z,40.70
2022-09-24T19:16:48.708Z,39.00
2022-09-24T19:19:18.779Z,35.00
2022-09-24T19:21:47.143Z,37.47
2022-09-24T19:24:15.343Z,35.10
2022-09-24T19:26:43.501Z,31.77
2022-09-24T19:29:12.434Z,31.47
2022-09-24T19:31:42.831Z,30.03
2022-09-24T19:34:14.479Z,28.60
2022-09-24T19:36:45.182Z,28.00
2022-09-24T19:39:15.660Z,30.37
2022-09-24T19:41:44.386Z,30.00
2022-09-24T19:44:12.981Z,30.97
2022-09-24T19:46:41.489Z,31.30
2022-09-24T19:49:09.740Z,32.10
2022-09-24T19:51:38.589Z,31.60
2022-09-24T19:54:09.186Z,32.23
2022-09-24T19:56:38.223Z,32.70
2022-09-24T19:59:08.082Z,33.53
2022-09-24T20:01:36.491Z,30.00
2022-09-24T20:04:07.181Z,32.80
2022-09-24T20:06:37.099Z,32.67
2022-09-24T20:09:07.573Z,32.30
2022-09-24T20:11:36.378Z,31.53
2022-09-24T20:14:06.140Z,32.70
2022-09-24T20:16:34.605Z,33.20
2022-09-24T20:19:05.210Z,32.80
2022-09-24T20:21:36.094Z,35.77
2022-09-24T20:24:06.593Z,37.30
2022-09-24T20:26:53.955Z,34.20
2022-09-24T20:29:23.505Z,35.57
2022-09-24T20:31:55.840Z,33.10
2022-09-24T20:34:28.523Z,34.03
2022-09-24T20:36:58.485Z,34.90
2022-09-24T20:39:26.843Z,33.70
2022-09-24T20:41:57.079Z,34.57
2022-09-24T20:44:26.214Z,34.33
2022-09-24T20:46:54.413Z,33.60
2022-09-24T20:49:24.328Z,35.93
2022-09-24T20:51:57.086Z,31.70
2022-09-24T20:54:27.054Z,33.70
2022-09-24T20:56:56.702Z,32.80
2022-09-24T20:59:25.622Z,34.57
2022-09-24T21:01:54.630Z,33.30
2022-09-24T21:04:23.112Z,37.13
2022-09-24T21:06:51.705Z,34.63
2022-09-24T21:09:19.847Z,34.93
2022-09-24T21:11:54.551Z,35.70
2022-09-24T21:14:24.761Z,34.47
2022-09-24T21:16:55.321Z,35.60
2022-09-24T21:19:24.440Z,36.80
2022-09-24T21:21:53.279Z,37.53
2022-09-24T21:24:25.175Z,39.80
2022-09-24T21:26:59.196Z,40.73
2022-09-24T21:29:30.511Z,44.23
2022-09-24T21:31:58.789Z,47.93
2022-09-24T21:34:29.117Z,51.67
2022-09-24T21:36:57.391Z,48.40
2022-09-24T21:39:26.770Z,40.97
2022-09-24T21:41:57.557Z,40.47
2022-09-24T21:44:25.988Z,36.37
2022-09-24T21:46:55.428Z,41.03
2022-09-24T21:49:23.660Z,37.53
2022-09-24T21:51:55.678Z,38.23
2022-09-24T21:54:24.335Z,36.27
2022-09-24T21:56:54.512Z,35.30
2022-09-24T21:59:40.076Z,34.07
2022-09-24T22:02:15.615Z,34.50
2022-09-24T22:04:44.416Z,34.67
2022-09-24T22:07:12.813Z,37.60
2022-09-24T22:09:41.237Z,38.90
2022-09-24T22:12:13.229Z,35.10
2022-09-24T22:14:45.716Z,35.83
2022-09-24T22:17:20.604Z,37.07
2022-09-24T22:19:48.839Z,45.90
2022-09-24T22:22:17.001Z,53.70
2022-09-24T22:24:46.757Z,56.13
2022-09-24T22:27:15.351Z,42.53
2022-09-24T22:29:46.355Z,37.27
2022-09-24T22:32:14.605Z,37.77
2022-09-24T22:35:01.690Z,43.87
2022-09-24T22:37:31.124Z,51.00
2022-09-24T22:39:59.435Z,44.00
2022-09-24T22:42:27.711Z,42.00
2022-09-24T22:44:58.656Z,44.97
2022-09-24T22:47:27.100Z,44.00
2022-09-24T22:49:59.547Z,39.53
2022-09-24T22:52:28.415Z,41.80
2022-09-24T22:54:56.798Z,42.57
2022-09-24T22:57:25.300Z,40.80
2022-09-24T22:59:53.655Z,40.93
2022-09-24T23:02:22.148Z,38.40
2022-09-24T23:04:50.292Z,34.17
2022-09-24T23:07:20.268Z,33.47
2022-09-24T23:09:48.559Z,30.60
2022-09-24T23:12:16.851Z,32.27
2022-09-24T23:14:45.307Z,30.70
2022-09-24T23:17:13.656Z,31.50
2022-09-24T23:19:52.023Z,32.60
2022-09-24T23:22:23.559Z,38.37
2022-09-24T23:24:51.936Z,51.20
2022-09-24T23:27:20.458Z,56.90
2022-09-24T23:29:48.996Z,51.03
2022-09-24T23:32:17.371Z,39.27
2022-09-24T23:34:46.359Z,46.77
2022-09-24T23:37:14.510Z,38.37
2022-09-24T23:39:44.311Z,36.03
2022-09-24T23:42:12.670Z,33.40
2022-09-24T23:44:41.551Z,34.30
2022-09-24T23:47:12.864Z,35.30
2022-09-24T23:49:41.180Z,32.07
2022-09-24T23:52:09.767Z,32.83
2022-09-24T23:54:39.562Z,31.17
2022-09-24T23:57:09.301Z,34.20
2022-09-24T23:59:37.458Z,33.77
